Detroit, Alabama
Current Conditions -  °F | °C
As of 3:55 PM on Thursday 27 Nov 2014 (Local Time) from KM40 Reporting Station
Overcast Overcast  
Wind Chill: 41°   Ceiling: 3800
Heat Index: 45°   Visibility: 9mi
Dew Point: 32°   Wind: 7mph
Humidity: 61%   Direction: 320°NW
Pressure: 30.47"   Gusts: NA
Location:  34.03°N, 88.17°W
Report Text: KM40 272155Z AUTO 32006KT 9SM OVC038 07/00 A3047 RMK AO2
Loading
Personal Weather Stations






























Interactive Weather Map New forecast layout! Learn more

10-Day Weather Forecast

Advertisements
Track Severe Weather on mobile